createdAt,value
2022-12-12T00:01:31.546Z,14.02
2022-12-12T00:03:59.417Z,14.60
2022-12-12T00:06:30.737Z,14.63
2022-12-12T00:09:40.521Z,15.18
2022-12-12T00:16:33.053Z,14.32
2022-12-12T00:19:01.118Z,16.05
2022-12-12T00:21:30.701Z,14.55
2022-12-12T00:24:01.150Z,16.10
2022-12-12T00:26:32.138Z,16.02
2022-12-12T00:29:02.979Z,15.68
2022-12-12T00:31:30.598Z,15.15
2022-12-12T00:34:01.946Z,15.32
2022-12-12T00:36:36.283Z,14.82
2022-12-12T00:39:07.073Z,14.77
2022-12-12T00:41:38.265Z,15.65
2022-12-12T00:44:19.770Z,15.15
2022-12-12T00:46:52.733Z,11.97
2022-12-12T00:51:47.546Z,13.98
2022-12-12T00:54:14.629Z,14.73
2022-12-12T00:56:41.830Z,15.10
2022-12-12T00:59:09.175Z,15.70
2022-12-12T01:01:36.715Z,14.77
2022-12-12T01:04:09.089Z,15.50
2022-12-12T01:06:39.430Z,15.40
2022-12-12T01:09:06.351Z,14.55
2022-12-12T01:11:35.430Z,15.65
2022-12-12T01:14:03.491Z,15.40
2022-12-12T01:16:30.980Z,14.73
2022-12-12T01:19:00.030Z,15.57
2022-12-12T01:21:37.910Z,14.52
2022-12-12T01:24:33.805Z,14.15
2022-12-12T01:27:02.323Z,14.13
2022-12-12T01:29:29.756Z,14.52
2022-12-12T01:31:56.815Z,13.60
2022-12-12T01:34:23.646Z,14.05
2022-12-12T01:36:52.083Z,14.70
2022-12-12T01:39:20.014Z,15.13
2022-12-12T01:41:46.944Z,15.15
2022-12-12T01:44:50.286Z,14.88
2022-12-12T01:51:43.616Z,13.77
2022-12-12T01:54:20.065Z,15.15
2022-12-12T01:56:50.686Z,14.45
2022-12-12T01:59:24.093Z,14.65
2022-12-12T02:01:52.034Z,14.95
2022-12-12T02:04:20.915Z,14.98
2022-12-12T02:07:08.516Z,14.25
2022-12-12T02:12:19.176Z,15.13
2022-12-12T02:14:50.609Z,14.48
2022-12-12T02:17:52.224Z,14.50
2022-12-12T02:20:48.972Z,14.63
2022-12-12T02:23:38.201Z,14.60
2022-12-12T02:26:22.323Z,16.13
2022-12-12T02:29:20.719Z,15.27
2022-12-12T02:32:03.732Z,15.45
2022-12-12T02:34:51.702Z,14.57
2022-12-12T02:37:40.655Z,15.35
2022-12-12T02:40:21.473Z,11.27
2022-12-12T02:42:52.186Z,14.18
2022-12-12T02:45:52.104Z,14.93
2022-12-12T02:48:43.058Z,15.38
2022-12-12T02:51:14.065Z,16.15
2022-12-12T02:53:42.234Z,15.90
2022-12-12T02:56:46.272Z,15.18
2022-12-12T02:59:37.090Z,14.48
2022-12-12T03:02:25.821Z,15.75
2022-12-12T03:05:40.905Z,15.68
2022-12-12T03:08:13.214Z,14.80
2022-12-12T03:11:20.631Z,15.85
2022-12-12T03:14:21.778Z,14.65
2022-12-12T03:17:23.511Z,10.95
2022-12-12T03:20:07.738Z,15.23
2022-12-12T03:23:05.284Z,13.38
2022-12-12T03:25:50.335Z,15.88
2022-12-12T03:28:32.333Z,16.27
2022-12-12T03:31:05.700Z,14.73
2022-12-12T03:33:39.959Z,14.70
2022-12-12T03:36:18.346Z,16.05
2022-12-12T03:38:57.484Z,14.07
2022-12-12T03:41:36.096Z,15.10
2022-12-12T03:44:25.398Z,14.82
2022-12-12T03:46:57.259Z,15.15
2022-12-12T03:49:34.791Z,15.48
2022-12-12T03:52:08.464Z,14.93
2022-12-12T03:54:49.279Z,14.93
2022-12-12T03:57:22.539Z,14.25
2022-12-12T04:00:02.067Z,15.05
2022-12-12T04:03:10.721Z,14.60
2022-12-12T04:06:16.669Z,14.05
2022-12-12T04:09:04.277Z,14.20
2022-12-12T04:11:59.288Z,11.80
2022-12-12T04:14:43.885Z,14.82
2022-12-12T04:17:19.330Z,14.43
2022-12-12T04:20:35.535Z,13.43
2022-12-12T04:23:16.572Z,13.23
2022-12-12T04:26:36.021Z,14.05
2022-12-12T04:29:30.139Z,14.10
2022-12-12T04:32:06.191Z,14.98
2022-12-12T04:35:06.876Z,15.60
2022-12-12T04:37:36.790Z,13.90
2022-12-12T04:40:07.777Z,15.95
2022-12-12T04:42:40.998Z,15.77
2022-12-12T04:45:14.404Z,15.15
2022-12-12T04:47:46.667Z,15.23
2022-12-12T04:50:22.748Z,14.75
2022-12-12T04:52:58.287Z,10.05
2022-12-12T04:55:32.827Z,13.57
2022-12-12T04:58:01.657Z,13.55
2022-12-12T05:00:35.155Z,13.50
2022-12-12T05:03:29.126Z,14.15
2022-12-12T05:06:03.464Z,14.25
2022-12-12T05:08:38.767Z,15.35
2022-12-12T05:11:07.342Z,14.75
2022-12-12T05:13:37.145Z,14.63
2022-12-12T05:16:34.369Z,14.23
2022-12-12T05:19:01.976Z,14.00
2022-12-12T05:21:30.169Z,14.57
2022-12-12T05:23:57.178Z,14.63
2022-12-12T05:26:26.923Z,13.30
2022-12-12T05:28:54.411Z,14.23
2022-12-12T05:31:22.000Z,14.75
2022-12-12T05:33:49.762Z,13.48
2022-12-12T05:36:19.696Z,15.00
2022-12-12T05:39:01.968Z,14.13
2022-12-12T05:41:28.904Z,14.55
2022-12-12T05:43:56.873Z,13.32
2022-12-12T05:46:24.954Z,12.65
2022-12-12T05:48:52.799Z,14.70
2022-12-12T05:51:22.112Z,14.05
2022-12-12T05:53:50.085Z,14.00
2022-12-12T05:59:17.335Z,13.85
2022-12-12T06:04:33.883Z,14.40
2022-12-12T06:07:04.976Z,13.52
2022-12-12T06:09:32.461Z,14.70
2022-12-12T06:12:00.036Z,13.20
2022-12-12T06:14:27.174Z,14.85
2022-12-12T06:16:55.253Z,15.98
2022-12-12T06:19:22.613Z,14.50
2022-12-12T06:21:59.294Z,16.33
2022-12-12T06:24:28.816Z,15.75
2022-12-12T06:26:57.079Z,14.90
2022-12-12T06:29:32.711Z,15.85
2022-12-12T06:32:02.745Z,16.67
2022-12-12T06:34:33.646Z,14.93
2022-12-12T06:37:01.880Z,14.48
2022-12-12T06:39:30.748Z,14.90
2022-12-12T06:41:58.685Z,15.73
2022-12-12T06:44:26.644Z,15.38
2022-12-12T06:47:46.808Z,17.05
2022-12-12T06:50:15.819Z,15.60
2022-12-12T06:52:45.161Z,16.42
2022-12-12T06:56:04.607Z,17.05
2022-12-12T06:58:33.241Z,15.43
2022-12-12T07:01:02.566Z,14.95
2022-12-12T07:03:33.893Z,15.00
2022-12-12T07:06:02.162Z,15.93
2022-12-12T07:17:04.544Z,14.13
2022-12-12T07:23:55.921Z,15.90
2022-12-12T07:26:27.835Z,17.10
2022-12-12T07:28:57.300Z,15.88
2022-12-12T07:31:26.599Z,16.25
2022-12-12T07:33:55.022Z,16.88
2022-12-12T07:36:23.474Z,16.67
2022-12-12T07:38:50.981Z,16.25
2022-12-12T07:41:20.695Z,16.80
2022-12-12T07:43:51.149Z,16.88
2022-12-12T07:46:25.343Z,17.00
2022-12-12T07:50:00.396Z,17.38
2022-12-12T07:59:18.038Z,15.10
2022-12-12T08:02:11.606Z,14.75
2022-12-12T08:04:43.254Z,15.13
2022-12-12T08:07:13.006Z,15.48
2022-12-12T08:09:40.309Z,14.73
2022-12-12T08:12:11.303Z,14.88
2022-12-12T08:14:38.549Z,15.30
2022-12-12T08:17:08.672Z,14.05
2022-12-12T08:19:43.375Z,15.80
2022-12-12T08:22:30.685Z,13.93
2022-12-12T08:27:56.324Z,12.18
2022-12-12T08:33:20.168Z,13.75
2022-12-12T08:35:47.853Z,14.50
2022-12-12T08:38:28.753Z,14.55
2022-12-12T08:41:05.459Z,14.63
2022-12-12T08:43:36.080Z,14.35
2022-12-12T08:46:12.416Z,14.93
2022-12-12T08:48:45.242Z,14.75
2022-12-12T08:51:13.063Z,14.32
2022-12-12T08:53:40.193Z,14.90
2022-12-12T08:56:07.758Z,15.70
2022-12-12T08:58:39.976Z,13.30
2022-12-12T09:01:16.432Z,14.82
2022-12-12T09:03:47.256Z,13.63
2022-12-12T09:06:15.860Z,15.43
2022-12-12T09:11:29.262Z,13.52
2022-12-12T09:13:58.889Z,13.82
2022-12-12T09:19:09.663Z,13.57
2022-12-12T09:21:36.802Z,13.55
2022-12-12T09:24:13.298Z,13.48
2022-12-12T09:26:44.795Z,12.82
2022-12-12T09:34:36.894Z,12.43
2022-12-12T09:37:11.453Z,11.95
2022-12-12T09:39:46.582Z,11.88
2022-12-12T09:42:30.949Z,12.30
2022-12-12T09:45:08.082Z,12.55
2022-12-12T09:47:46.247Z,10.60
2022-12-12T09:50:36.063Z,11.98
2022-12-12T09:53:23.936Z,11.23
2022-12-12T09:56:22.765Z,10.05
2022-12-12T09:59:06.192Z,10.52
2022-12-12T10:01:39.492Z,11.40
2022-12-12T10:04:25.684Z,10.98
2022-12-12T10:07:04.826Z,11.50
2022-12-12T10:10:01.970Z,12.20
2022-12-12T10:12:36.627Z,9.13
2022-12-12T10:17:49.712Z,10.93
2022-12-12T10:20:29.481Z,10.23
2022-12-12T10:23:20.373Z,10.07
2022-12-12T10:26:28.200Z,10.77
2022-12-12T10:29:16.481Z,9.55
2022-12-12T10:31:52.644Z,9.88
2022-12-12T10:34:31.753Z,10.50
2022-12-12T10:37:21.701Z,9.93
2022-12-12T10:40:12.473Z,9.77
2022-12-12T10:42:46.408Z,10.57
2022-12-12T10:45:37.114Z,10.32
2022-12-12T10:48:05.761Z,10.93
2022-12-12T10:50:38.621Z,9.45
2022-12-12T10:53:09.423Z,9.50
2022-12-12T10:55:46.593Z,9.88
2022-12-12T10:58:13.741Z,10.63
2022-12-12T11:02:07.865Z,10.13
2022-12-12T11:04:25.783Z,9.85
2022-12-12T11:06:55.060Z,10.85
2022-12-12T11:09:24.888Z,9.80
2022-12-12T11:12:10.333Z,9.20
2022-12-12T11:14:52.593Z,9.15
2022-12-12T11:17:27.758Z,9.05
2022-12-12T11:19:57.690Z,8.85
2022-12-12T11:22:26.571Z,9.35
2022-12-12T11:24:55.395Z,9.38
2022-12-12T11:27:45.210Z,9.00
2022-12-12T11:30:42.954Z,9.20
2022-12-12T11:33:22.264Z,9.63
2022-12-12T11:35:55.882Z,9.43
2022-12-12T11:38:54.976Z,8.75
2022-12-12T11:41:22.558Z,8.65
2022-12-12T11:44:00.602Z,8.40
2022-12-12T11:46:32.205Z,8.93
2022-12-12T11:49:09.167Z,9.32
2022-12-12T11:51:43.331Z,8.95
2022-12-12T11:54:33.577Z,8.82
2022-12-12T11:57:11.340Z,7.97
2022-12-12T12:00:09.441Z,8.52
2022-12-12T12:03:10.179Z,7.72
2022-12-12T12:06:09.281Z,8.65
2022-12-12T12:09:17.869Z,8.70
2022-12-12T12:12:11.694Z,8.23
2022-12-12T12:14:57.486Z,9.00
2022-12-12T12:17:32.941Z,7.68
2022-12-12T12:20:20.444Z,7.18
2022-12-12T12:22:54.678Z,7.50
2022-12-12T12:25:25.603Z,7.32
2022-12-12T12:28:27.069Z,8.00
2022-12-12T12:31:19.817Z,7.82
2022-12-12T12:33:56.266Z,7.95
2022-12-12T12:36:29.451Z,8.10
2022-12-12T12:39:53.805Z,7.72
2022-12-12T12:42:23.867Z,7.30
2022-12-12T12:45:21.425Z,8.20
2022-12-12T12:48:25.692Z,7.30
2022-12-12T12:51:04.788Z,7.22
2022-12-12T12:53:39.273Z,7.82
2022-12-12T12:56:27.931Z,7.28
2022-12-12T12:59:03.013Z,7.95
2022-12-12T13:01:41.299Z,8.18
2022-12-12T13:04:18.172Z,7.20
2022-12-12T13:07:08.185Z,8.80
2022-12-12T13:09:52.129Z,8.32
2022-12-12T13:12:43.466Z,9.05
2022-12-12T13:15:26.166Z,8.80
2022-12-12T13:18:04.730Z,8.80
2022-12-12T13:20:42.910Z,9.63
2022-12-12T13:23:47.164Z,9.93
2022-12-12T13:26:19.610Z,9.57
2022-12-12T13:32:36.939Z,9.30
2022-12-12T13:35:13.339Z,10.25
2022-12-12T13:37:53.364Z,9.95
2022-12-12T13:40:32.390Z,10.18
2022-12-12T13:43:27.465Z,10.45
2022-12-12T13:45:54.890Z,10.75
2022-12-12T13:48:30.765Z,11.07
2022-12-12T13:51:32.701Z,11.30
2022-12-12T13:54:14.429Z,10.00
2022-12-12T13:57:12.842Z,8.70
2022-12-12T14:00:00.172Z,11.13
2022-12-12T14:02:42.597Z,11.00
2022-12-12T14:05:44.517Z,11.90
2022-12-12T14:08:19.051Z,11.52
2022-12-12T14:10:46.497Z,12.45
2022-12-12T14:13:26.116Z,11.48
2022-12-12T14:16:02.374Z,12.80
2022-12-12T14:19:04.558Z,12.32
2022-12-12T14:21:51.372Z,11.80
2022-12-12T14:24:34.120Z,11.80
2022-12-12T14:27:03.130Z,12.32
2022-12-12T14:29:45.267Z,11.23
2022-12-12T14:33:17.206Z,11.30
2022-12-12T14:36:52.192Z,11.73
2022-12-12T14:39:26.604Z,11.23
2022-12-12T14:42:08.570Z,11.50
2022-12-12T14:44:50.702Z,10.95
2022-12-12T14:47:20.004Z,10.90
2022-12-12T14:50:11.639Z,10.80
2022-12-12T14:52:42.691Z,11.73
2022-12-12T14:55:16.535Z,11.50
2022-12-12T14:57:43.815Z,10.77
2022-12-12T15:00:28.911Z,12.07
2022-12-12T15:03:02.194Z,11.57
2022-12-12T15:05:30.738Z,11.30
2022-12-12T15:08:05.279Z,12.13
2022-12-12T15:10:51.246Z,10.70
2022-12-12T15:14:10.431Z,10.77
2022-12-12T15:17:09.484Z,10.73
2022-12-12T15:20:43.033Z,11.65
2022-12-12T15:23:20.320Z,11.70
2022-12-12T15:25:57.269Z,11.95
2022-12-12T15:28:25.934Z,11.45
2022-12-12T15:30:53.829Z,11.90
2022-12-12T15:33:26.674Z,13.35
2022-12-12T15:36:07.770Z,13.93
2022-12-12T15:39:16.921Z,14.23
2022-12-12T15:41:45.931Z,12.27
2022-12-12T15:44:21.212Z,13.10
2022-12-12T15:46:51.868Z,12.20
2022-12-12T15:49:50.757Z,14.57
2022-12-12T15:52:42.689Z,18.25
2022-12-12T15:55:22.435Z,14.10
2022-12-12T15:57:54.441Z,12.52
2022-12-12T16:00:36.750Z,14.75
2022-12-12T16:03:25.234Z,13.68
2022-12-12T16:06:30.650Z,13.32
2022-12-12T16:09:18.404Z,12.57
2022-12-12T16:11:55.375Z,12.35
2022-12-12T16:14:50.502Z,12.57
2022-12-12T16:17:20.262Z,13.75
2022-12-12T16:20:03.580Z,13.40
2022-12-12T16:22:49.009Z,15.80
2022-12-12T16:25:45.432Z,17.48
2022-12-12T16:28:33.259Z,14.38
2022-12-12T16:31:26.476Z,14.80
2022-12-12T16:34:03.660Z,13.70
2022-12-12T16:36:58.100Z,16.23
2022-12-12T16:39:25.149Z,14.25
2022-12-12T16:42:07.369Z,13.88
2022-12-12T16:44:37.486Z,14.55
2022-12-12T16:47:22.069Z,15.95
2022-12-12T16:49:55.792Z,17.35
2022-12-12T16:52:49.625Z,14.32
2022-12-12T16:55:35.322Z,15.30
2022-12-12T16:58:05.964Z,15.68
2022-12-12T17:00:40.572Z,17.00
2022-12-12T17:03:16.264Z,20.77
2022-12-12T17:05:47.477Z,20.63
2022-12-12T17:08:19.596Z,15.55
2022-12-12T17:11:10.442Z,16.27
2022-12-12T17:13:49.961Z,16.67
2022-12-12T17:16:34.787Z,19.65
2022-12-12T17:23:34.839Z,15.68
2022-12-12T17:26:24.483Z,16.48
2022-12-12T17:29:29.319Z,16.83
2022-12-12T17:32:22.904Z,16.27
2022-12-12T17:34:56.938Z,17.58
2022-12-12T17:37:53.658Z,16.02
2022-12-12T17:40:26.170Z,16.10
2022-12-12T17:43:08.394Z,15.35
2022-12-12T17:46:24.265Z,16.67
2022-12-12T17:49:04.780Z,15.18
2022-12-12T17:51:38.561Z,15.98
2022-12-12T17:54:33.322Z,16.42
2022-12-12T17:57:33.031Z,16.83
2022-12-12T18:00:35.602Z,15.55
2022-12-12T18:03:06.533Z,16.17
2022-12-12T18:05:36.197Z,16.50
2022-12-12T18:08:16.393Z,16.80
2022-12-12T18:10:44.932Z,16.20
2022-12-12T18:13:38.931Z,16.30
2022-12-12T18:16:13.986Z,18.23
2022-12-12T18:18:45.652Z,17.55
2022-12-12T18:22:00.470Z,15.88
2022-12-12T18:24:29.907Z,17.60
2022-12-12T18:27:00.097Z,16.35
2022-12-12T18:29:28.406Z,16.98
2022-12-12T18:31:55.648Z,17.30
2022-12-12T18:34:23.004Z,16.85
2022-12-12T18:36:50.501Z,17.55
2022-12-12T18:39:18.690Z,16.63
2022-12-12T18:41:49.604Z,16.52
2022-12-12T18:44:17.565Z,17.60
2022-12-12T18:46:44.551Z,17.58
2022-12-12T18:49:15.565Z,17.08
2022-12-12T18:51:47.321Z,17.98
2022-12-12T18:54:16.699Z,18.73
2022-12-12T18:56:46.169Z,17.90
2022-12-12T18:59:19.303Z,17.60
2022-12-12T19:01:48.048Z,19.20
2022-12-12T19:04:22.431Z,19.77
2022-12-12T19:06:51.851Z,19.70
2022-12-12T19:09:20.955Z,19.52
2022-12-12T19:11:50.668Z,18.63
2022-12-12T19:14:18.669Z,20.60
2022-12-12T19:16:46.699Z,18.92
2022-12-12T19:19:15.055Z,19.73
2022-12-12T19:21:45.004Z,18.65
2022-12-12T19:24:12.826Z,19.77
2022-12-12T19:26:44.265Z,18.23
2022-12-12T19:29:15.387Z,19.00
2022-12-12T19:31:43.373Z,20.80
2022-12-12T19:34:13.880Z,20.30
2022-12-12T19:36:41.098Z,21.60
2022-12-12T19:39:08.907Z,21.00
2022-12-12T19:41:36.529Z,21.02
2022-12-12T19:44:05.843Z,20.10
2022-12-12T19:46:33.583Z,17.92
2022-12-12T19:49:08.739Z,17.77
2022-12-12T19:56:12.764Z,18.00
2022-12-12T19:59:05.088Z,19.13
2022-12-12T20:01:36.026Z,20.13
2022-12-12T20:04:08.052Z,20.05
2022-12-12T20:06:45.692Z,21.13
2022-12-12T20:09:24.239Z,19.95
2022-12-12T20:11:51.254Z,21.95
2022-12-12T20:14:21.194Z,20.25
2022-12-12T20:16:50.262Z,20.55
2022-12-12T20:19:18.719Z,18.90
2022-12-12T20:22:03.859Z,19.98
2022-12-12T20:24:33.651Z,18.48
2022-12-12T20:27:04.884Z,17.65
2022-12-12T20:29:36.059Z,18.33
2022-12-12T20:32:11.260Z,18.13
2022-12-12T20:34:42.213Z,19.15
2022-12-12T20:37:13.011Z,18.83
2022-12-12T20:42:44.670Z,19.05
2022-12-12T20:45:17.065Z,19.88
2022-12-12T20:47:46.804Z,20.40
2022-12-12T20:50:15.426Z,21.58
2022-12-12T20:52:46.180Z,21.08
2022-12-12T20:55:14.280Z,22.38
2022-12-12T20:57:41.869Z,21.17
2022-12-12T21:00:10.537Z,21.95
2022-12-12T21:02:40.328Z,20.70
2022-12-12T21:05:11.660Z,21.63
2022-12-12T21:07:46.871Z,20.80
2022-12-12T21:10:16.573Z,19.55
2022-12-12T21:12:51.594Z,21.52
2022-12-12T21:15:22.520Z,21.08
2022-12-12T21:17:50.576Z,20.23
2022-12-12T21:24:49.992Z,19.23
2022-12-12T21:27:21.229Z,19.33
2022-12-12T21:29:53.896Z,19.58
2022-12-12T21:34:49.784Z,19.55
2022-12-12T21:37:18.255Z,19.05
2022-12-12T21:39:50.981Z,18.70
2022-12-12T21:42:18.869Z,20.52
2022-12-12T21:44:47.891Z,19.45
2022-12-12T21:47:15.795Z,19.00
2022-12-12T21:49:44.241Z,19.02
2022-12-12T21:52:13.951Z,18.85
2022-12-12T21:54:41.052Z,17.80
2022-12-12T21:57:10.572Z,18.20
2022-12-12T21:59:38.528Z,18.10
2022-12-12T22:02:07.568Z,19.02
2022-12-12T22:04:34.619Z,18.73
2022-12-12T22:07:03.051Z,18.35
2022-12-12T22:09:31.036Z,18.08
2022-12-12T22:12:04.051Z,17.73
2022-12-12T22:14:43.051Z,17.33
2022-12-12T22:17:18.054Z,18.95
2022-12-12T22:19:48.655Z,18.58
2022-12-12T22:22:22.269Z,18.00
2022-12-12T22:24:50.442Z,17.67
2022-12-12T22:27:19.334Z,17.63
2022-12-12T22:29:46.271Z,18.23
2022-12-12T22:32:14.461Z,17.25
2022-12-12T22:34:42.573Z,18.08
2022-12-12T22:37:11.504Z,16.90
2022-12-12T22:39:39.540Z,17.02
2022-12-12T22:42:07.499Z,16.80
2022-12-12T22:44:34.369Z,17.40
2022-12-12T22:47:03.421Z,17.30
2022-12-12T22:49:30.480Z,17.15
2022-12-12T22:51:58.224Z,18.75
2022-12-12T22:54:26.591Z,17.20
2022-12-12T22:56:53.850Z,17.35
2022-12-12T22:59:22.480Z,18.00
2022-12-12T23:01:50.360Z,16.48
2022-12-12T23:04:18.334Z,16.55
2022-12-12T23:06:46.380Z,17.33
2022-12-12T23:09:20.568Z,17.23
2022-12-12T23:11:49.343Z,17.48
2022-12-12T23:14:20.554Z,16.88
2022-12-12T23:19:26.624Z,15.05
2022-12-12T23:21:57.642Z,15.57
2022-12-12T23:24:31.835Z,14.88
2022-12-12T23:27:12.138Z,15.65
2022-12-12T23:29:46.181Z,15.43
2022-12-12T23:32:18.070Z,14.43
2022-12-12T23:34:55.275Z,15.82
2022-12-12T23:37:30.566Z,14.55
2022-12-12T23:40:05.341Z,14.70
2022-12-12T23:43:07.910Z,15.32
2022-12-12T23:51:12.877Z,15.18
2022-12-12T23:54:42.266Z,15.60
2022-12-12T23:57:10.262Z,13.68
2022-12-12T23:59:42.711Z,15.93
